createdAt,value
2022-10-07T00:01:03.522Z,99500.13
2022-10-07T00:03:35.481Z,99500.19
2022-10-07T00:06:19.093Z,99504.00
2022-10-07T00:08:52.983Z,99498.75
2022-10-07T00:11:27.540Z,99503.25
2022-10-07T00:13:59.600Z,99493.88
2022-10-07T00:16:34.860Z,99497.66
2022-10-07T00:19:07.717Z,99493.25
2022-10-07T00:21:38.033Z,99496.81
2022-10-07T00:24:07.821Z,99495.47
2022-10-07T00:26:37.559Z,99490.41
2022-10-07T00:29:06.960Z,99494.28
2022-10-07T00:31:37.346Z,99491.75
2022-10-07T00:34:05.519Z,99492.81
2022-10-07T00:36:37.496Z,99486.91
2022-10-07T00:39:15.343Z,99488.94
2022-10-07T00:41:50.379Z,99483.09
2022-10-07T00:44:32.849Z,99477.34
2022-10-07T00:47:07.051Z,99483.81
2022-10-07T00:49:49.527Z,99480.69
2022-10-07T00:52:20.454Z,99467.84
2022-10-07T00:54:53.446Z,99471.47
2022-10-07T00:57:25.489Z,99469.16
2022-10-07T00:59:55.647Z,99463.66
2022-10-07T01:02:25.500Z,99466.56
2022-10-07T01:04:56.888Z,99465.91
2022-10-07T01:07:24.650Z,99459.75
2022-10-07T01:09:55.188Z,99460.75
2022-10-07T01:12:40.292Z,99459.38
2022-10-07T01:15:18.126Z,99461.31
2022-10-07T01:18:11.299Z,99458.75
2022-10-07T01:20:58.014Z,99456.09
2022-10-07T01:23:39.980Z,99455.19
2022-10-07T01:26:51.296Z,99447.59
2022-10-07T01:29:56.197Z,99444.91
2022-10-07T01:33:04.976Z,99439.66
2022-10-07T01:35:37.949Z,99439.50
2022-10-07T01:38:10.988Z,99442.91
2022-10-07T01:40:48.406Z,99436.03
2022-10-07T01:43:20.771Z,99437.69
2022-10-07T01:45:49.207Z,99431.50
2022-10-07T01:48:17.105Z,99427.03
2022-10-07T01:50:45.571Z,99431.59
2022-10-07T01:53:39.205Z,99429.91
2022-10-07T01:56:46.592Z,99429.38
2022-10-07T01:59:35.512Z,99419.09
2022-10-07T02:02:18.788Z,99421.88
2022-10-07T02:05:30.655Z,99427.28
2022-10-07T02:08:24.865Z,99424.88
2022-10-07T02:11:16.755Z,99430.38
2022-10-07T02:13:56.085Z,99418.25
2022-10-07T02:16:35.522Z,99421.69
2022-10-07T02:19:11.118Z,99414.72
2022-10-07T02:21:40.506Z,99416.56
2022-10-07T02:24:12.236Z,99416.75
2022-10-07T02:26:43.515Z,99405.44
2022-10-07T02:29:14.690Z,99409.06
2022-10-07T02:31:47.671Z,99408.13
2022-10-07T02:34:20.275Z,99408.06
2022-10-07T02:37:05.808Z,99404.72
2022-10-07T02:39:34.204Z,99407.28
2022-10-07T02:42:14.122Z,99408.44
2022-10-07T02:45:07.016Z,99411.34
2022-10-07T02:47:45.278Z,99404.50
2022-10-07T02:50:22.540Z,99396.75
2022-10-07T02:52:55.817Z,99401.28
2022-10-07T02:55:27.630Z,99398.91
2022-10-07T02:58:00.652Z,99406.81
2022-10-07T03:00:34.775Z,99399.97
2022-10-07T03:03:05.158Z,99402.53
2022-10-07T03:05:35.528Z,99399.06
2022-10-07T03:08:11.346Z,99407.13
2022-10-07T03:10:38.950Z,99392.28
2022-10-07T03:13:06.117Z,99400.19
2022-10-07T03:15:41.902Z,99396.13
2022-10-07T03:18:26.296Z,99392.56
2022-10-07T03:20:55.989Z,99386.75
2022-10-07T03:23:25.166Z,99387.19
2022-10-07T03:25:54.925Z,99390.81
2022-10-07T03:28:24.651Z,99378.13
2022-10-07T03:30:53.117Z,99381.03
2022-10-07T03:33:25.866Z,99379.53
2022-10-07T03:35:53.970Z,99383.91
2022-10-07T03:38:21.959Z,99377.00
2022-10-07T03:40:49.957Z,99381.38
2022-10-07T03:43:18.268Z,99376.91
2022-10-07T03:45:50.024Z,99378.84
2022-10-07T03:48:18.000Z,99381.47
2022-10-07T03:50:57.759Z,99376.31
2022-10-07T03:53:29.720Z,99371.31
2022-10-07T03:55:58.152Z,99370.53
2022-10-07T03:58:25.909Z,99371.38
2022-10-07T04:01:03.543Z,99366.31
2022-10-07T04:03:30.963Z,99360.38
2022-10-07T04:05:59.760Z,99351.56
2022-10-07T04:08:29.284Z,99343.66
2022-10-07T04:10:59.737Z,99351.41
2022-10-07T04:13:27.381Z,99351.31
2022-10-07T04:15:55.189Z,99340.13
2022-10-07T04:18:23.910Z,99342.72
2022-10-07T04:20:51.122Z,99338.50
2022-10-07T04:23:19.569Z,99337.66
2022-10-07T04:25:47.684Z,99334.13
2022-10-07T04:28:22.176Z,99333.28
2022-10-07T04:30:51.607Z,99338.50
2022-10-07T04:33:21.265Z,99332.94
2022-10-07T04:35:50.337Z,99324.13
2022-10-07T04:38:18.983Z,99326.84
2022-10-07T04:40:50.152Z,99327.19
2022-10-07T04:43:23.716Z,99321.94
2022-10-07T04:45:54.482Z,99323.94
2022-10-07T04:48:24.114Z,99319.47
2022-10-07T04:50:54.856Z,99322.03
2022-10-07T04:53:22.952Z,99315.16
2022-10-07T04:55:54.668Z,99321.94
2022-10-07T04:58:22.017Z,99316.81
2022-10-07T05:00:53.180Z,99317.78
2022-10-07T05:03:23.436Z,99321.88
2022-10-07T05:05:55.362Z,99312.00
2022-10-07T05:08:25.022Z,99310.91
2022-10-07T05:11:01.133Z,99321.06
2022-10-07T05:13:30.344Z,99316.44
2022-10-07T05:16:00.769Z,99323.06
2022-10-07T05:18:29.856Z,99316.72
2022-10-07T05:20:57.376Z,99327.84
2022-10-07T05:23:28.646Z,99324.09
2022-10-07T05:26:08.090Z,99321.69
2022-10-07T05:28:37.702Z,99325.88
2022-10-07T05:31:09.496Z,99318.03
2022-10-07T05:33:38.239Z,99321.47
2022-10-07T05:36:08.172Z,99320.41
2022-10-07T05:38:36.958Z,99320.47
2022-10-07T05:41:09.882Z,99313.56
2022-10-07T05:43:42.366Z,99313.84
2022-10-07T05:46:16.646Z,99312.63
2022-10-07T05:48:52.313Z,99309.06
2022-10-07T05:51:21.459Z,99312.00
2022-10-07T05:53:49.354Z,99312.03
2022-10-07T05:56:22.723Z,99312.47
2022-10-07T05:58:52.583Z,99317.56
2022-10-07T06:01:24.890Z,99314.94
2022-10-07T06:03:55.544Z,99305.41
2022-10-07T06:06:24.302Z,99306.47
2022-10-07T06:08:53.678Z,99311.22
2022-10-07T06:11:40.000Z,99309.81
2022-10-07T06:14:07.458Z,99308.25
2022-10-07T06:16:34.801Z,99310.31
2022-10-07T06:19:02.378Z,99310.50
2022-10-07T06:21:29.570Z,99302.94
2022-10-07T06:23:58.558Z,99308.16
2022-10-07T06:26:26.198Z,99305.06
2022-10-07T06:28:53.621Z,99295.09
2022-10-07T06:31:26.016Z,99297.91
2022-10-07T06:33:54.356Z,99297.00
2022-10-07T06:36:21.708Z,99298.78
2022-10-07T06:38:51.963Z,99301.06
2022-10-07T06:41:20.068Z,99292.50
2022-10-07T06:43:48.046Z,99290.47
2022-10-07T06:46:20.213Z,99281.13
2022-10-07T06:48:47.951Z,99282.38
2022-10-07T06:51:18.715Z,99282.75
2022-10-07T06:53:50.676Z,99280.44
2022-10-07T06:56:18.059Z,99285.91
2022-10-07T06:58:45.502Z,99286.50
2022-10-07T07:01:13.210Z,99281.69
2022-10-07T07:03:40.793Z,99285.00
2022-10-07T07:06:11.058Z,99279.00
2022-10-07T07:08:41.181Z,99282.63
2022-10-07T07:11:32.971Z,99283.00
2022-10-07T07:14:00.683Z,99281.22
2022-10-07T07:16:28.520Z,99287.38
2022-10-07T07:19:01.747Z,99282.47
2022-10-07T07:21:30.242Z,99287.66
2022-10-07T07:23:58.808Z,99292.72
2022-10-07T07:26:28.297Z,99284.66
2022-10-07T07:29:02.738Z,99288.66
2022-10-07T07:31:33.610Z,99286.06
2022-10-07T07:34:05.609Z,99277.25
2022-10-07T07:36:36.263Z,99275.50
2022-10-07T07:39:11.510Z,99278.28
2022-10-07T07:41:42.274Z,99272.00
2022-10-07T07:44:12.676Z,99289.09
2022-10-07T07:46:44.132Z,99285.38
2022-10-07T07:49:13.424Z,99274.31
2022-10-07T07:51:44.647Z,99277.59
2022-10-07T07:54:13.186Z,99275.13
2022-10-07T07:56:41.940Z,99277.19
2022-10-07T07:59:10.764Z,99287.88
2022-10-07T08:01:39.074Z,99285.72
2022-10-07T08:04:07.146Z,99268.03
2022-10-07T08:06:34.924Z,99276.63
2022-10-07T08:09:02.468Z,99283.16
2022-10-07T08:11:30.263Z,99278.78
2022-10-07T08:13:57.779Z,99269.28
2022-10-07T08:16:28.833Z,99270.34
2022-10-07T08:18:58.196Z,99268.53
2022-10-07T08:21:32.974Z,99264.44
2022-10-07T08:24:04.215Z,99254.50
2022-10-07T08:26:34.716Z,99254.56
2022-10-07T08:29:02.290Z,99255.63
2022-10-07T08:31:30.426Z,99253.69
2022-10-07T08:34:01.825Z,99253.66
2022-10-07T08:36:32.927Z,99253.13
2022-10-07T08:39:02.314Z,99243.53
2022-10-07T08:41:54.395Z,99250.88
2022-10-07T08:44:48.034Z,99247.16
2022-10-07T08:47:30.569Z,99246.38
2022-10-07T08:50:18.114Z,99260.72
2022-10-07T08:53:00.117Z,99248.16
2022-10-07T08:55:49.994Z,99246.03
2022-10-07T08:58:31.047Z,99242.63
2022-10-07T09:01:40.689Z,99244.66
2022-10-07T09:04:34.908Z,99235.25
2022-10-07T09:07:27.061Z,99241.00
2022-10-07T09:10:00.960Z,99236.03
2022-10-07T09:12:52.521Z,99222.50
2022-10-07T09:15:41.936Z,99221.41
2022-10-07T09:18:24.946Z,99231.09
2022-10-07T09:20:56.198Z,99225.19
2022-10-07T09:23:30.130Z,99222.84
2022-10-07T09:25:57.941Z,99215.47
2022-10-07T09:28:34.517Z,99208.19
2022-10-07T09:31:03.166Z,99207.22
2022-10-07T09:33:31.332Z,99208.31
2022-10-07T09:36:11.677Z,99194.88
2022-10-07T09:38:46.036Z,99201.50
2022-10-07T09:41:36.087Z,99197.56
2022-10-07T09:44:15.665Z,99200.06
2022-10-07T09:46:59.475Z,99199.34
2022-10-07T09:49:29.905Z,99196.88
2022-10-07T09:52:03.377Z,99191.56
2022-10-07T09:54:36.314Z,99190.59
2022-10-07T09:57:05.675Z,99187.38
2022-10-07T09:59:37.652Z,99194.28
2022-10-07T10:02:20.207Z,99191.03
2022-10-07T10:04:57.334Z,99184.13
2022-10-07T10:07:32.634Z,99170.19
2022-10-07T10:10:28.817Z,99166.00
2022-10-07T10:12:59.040Z,99165.25
2022-10-07T10:15:45.029Z,99165.50
2022-10-07T10:18:37.192Z,99156.06
2022-10-07T10:21:31.047Z,99157.97
2022-10-07T10:24:15.224Z,99155.50
2022-10-07T10:27:04.450Z,99143.78
2022-10-07T10:29:48.569Z,99140.50
2022-10-07T10:32:51.465Z,99141.28
2022-10-07T10:35:35.802Z,99139.91
2022-10-07T10:38:51.864Z,99145.47
2022-10-07T10:41:56.291Z,99136.84
2022-10-07T10:44:54.476Z,99129.22
2022-10-07T10:48:25.838Z,99122.81
2022-10-07T10:50:53.441Z,99117.41
2022-10-07T10:53:52.739Z,99122.19
2022-10-07T10:57:09.599Z,99105.47
2022-10-07T10:59:45.766Z,99113.41
2022-10-07T11:03:14.937Z,99102.13
2022-10-07T11:05:44.212Z,99097.84
2022-10-07T11:08:23.123Z,99083.78
2022-10-07T11:10:57.608Z,99084.13
2022-10-07T11:13:51.972Z,99080.81
2022-10-07T11:16:45.275Z,99071.72
2022-10-07T11:19:25.059Z,99067.53
2022-10-07T11:22:00.046Z,99059.88
2022-10-07T11:24:34.827Z,99054.06
2022-10-07T11:27:15.003Z,99050.94
2022-10-07T11:30:17.768Z,99053.56
2022-10-07T11:32:47.741Z,99039.66
2022-10-07T11:35:49.295Z,99030.19
2022-10-07T11:38:31.402Z,99028.81
2022-10-07T11:41:09.602Z,99018.50
2022-10-07T11:43:56.937Z,99010.06
2022-10-07T11:46:46.277Z,99006.53
2022-10-07T11:49:23.670Z,98999.09
2022-10-07T11:52:04.614Z,98990.34
2022-10-07T11:55:09.302Z,98977.69
2022-10-07T11:57:44.015Z,98975.44
2022-10-07T12:00:33.126Z,98975.88
2022-10-07T12:03:33.569Z,98975.09
2022-10-07T12:06:13.767Z,98967.38
2022-10-07T12:08:44.223Z,98970.50
2022-10-07T12:11:16.729Z,98967.66
2022-10-07T12:13:54.169Z,98958.69
2022-10-07T12:16:24.354Z,98953.69
2022-10-07T12:19:07.372Z,98945.34
2022-10-07T12:21:59.338Z,98944.91
2022-10-07T12:24:28.231Z,98932.50
2022-10-07T12:27:18.221Z,98931.94
2022-10-07T12:30:02.482Z,98925.66
2022-10-07T12:32:39.656Z,98927.81
2022-10-07T12:35:37.943Z,98922.28
2022-10-07T12:38:11.073Z,98911.03
2022-10-07T12:40:41.749Z,98915.44
2022-10-07T12:43:47.878Z,98898.44
2022-10-07T12:46:21.606Z,98883.41
2022-10-07T12:49:03.263Z,98885.75
2022-10-07T12:51:38.781Z,98881.03
2022-10-07T12:54:20.381Z,98870.59
2022-10-07T12:56:49.365Z,98864.97
2022-10-07T12:59:49.795Z,98864.53
2022-10-07T13:03:08.997Z,98847.97
2022-10-07T13:06:14.482Z,98846.06
2022-10-07T13:09:04.355Z,98835.13
2022-10-07T13:11:34.454Z,98837.66
2022-10-07T13:14:16.753Z,98835.22
2022-10-07T13:17:35.381Z,98819.75
2022-10-07T13:20:38.946Z,98820.75
2022-10-07T13:23:17.338Z,98812.94
2022-10-07T13:25:58.036Z,98812.22
2022-10-07T13:28:38.796Z,98807.28
2022-10-07T13:31:28.664Z,98807.88
2022-10-07T13:33:59.399Z,98799.47
2022-10-07T13:36:33.100Z,98793.13
2022-10-07T13:39:23.193Z,98783.19
2022-10-07T13:41:58.158Z,98779.25
2022-10-07T13:44:32.158Z,98772.50
2022-10-07T13:47:10.128Z,98766.00
2022-10-07T13:49:44.156Z,98762.13
2022-10-07T13:52:37.228Z,98757.94
2022-10-07T13:55:31.482Z,98758.19
2022-10-07T13:58:04.599Z,98754.31
2022-10-07T14:00:36.117Z,98746.50
2022-10-07T14:03:17.464Z,98744.81
2022-10-07T14:05:52.508Z,98744.69
2022-10-07T14:08:24.823Z,98733.25
2022-10-07T14:10:59.914Z,98728.53
2022-10-07T14:13:29.087Z,98727.34
2022-10-07T14:15:59.443Z,98714.22
2022-10-07T14:18:29.819Z,98709.56
2022-10-07T14:21:10.801Z,98705.16
2022-10-07T14:23:38.439Z,98704.34
2022-10-07T14:26:19.067Z,98699.00
2022-10-07T14:28:46.533Z,98697.97
2022-10-07T14:31:40.119Z,98692.50
2022-10-07T14:34:38.441Z,98696.75
2022-10-07T14:37:13.783Z,98682.50
2022-10-07T14:39:50.039Z,98679.91
2022-10-07T14:42:34.960Z,98679.88
2022-10-07T14:45:08.327Z,98677.75
2022-10-07T14:47:36.399Z,98669.50
2022-10-07T14:50:04.347Z,98679.25
2022-10-07T14:52:46.779Z,98672.16
2022-10-07T14:55:20.632Z,98670.22
2022-10-07T14:57:48.233Z,98667.13
2022-10-07T15:00:25.679Z,98667.81
2022-10-07T15:02:58.245Z,98666.31
2022-10-07T15:05:27.021Z,98664.31
2022-10-07T15:07:54.326Z,98663.94
2022-10-07T15:10:26.415Z,98666.72
2022-10-07T15:12:56.135Z,98657.59
2022-10-07T15:15:23.462Z,98667.56
2022-10-07T15:17:50.968Z,98660.25
2022-10-07T15:20:18.488Z,98659.63
2022-10-07T15:22:46.303Z,98655.84
2022-10-07T15:25:15.410Z,98655.75
2022-10-07T15:27:43.496Z,98655.06
2022-10-07T15:30:11.926Z,98656.22
2022-10-07T15:32:39.163Z,98654.53
2022-10-07T15:35:07.612Z,98657.78
2022-10-07T15:37:34.849Z,98655.81
2022-10-07T15:40:02.121Z,98660.69
2022-10-07T15:42:29.729Z,98659.31
2022-10-07T15:44:57.035Z,98659.47
2022-10-07T15:47:24.492Z,98657.88
2022-10-07T15:49:51.834Z,98653.66
2022-10-07T15:52:19.139Z,98651.03
2022-10-07T15:54:46.667Z,98654.78
2022-10-07T15:57:14.796Z,98651.34
2022-10-07T15:59:42.597Z,98647.09
2022-10-07T16:02:21.443Z,98652.47
2022-10-07T16:04:49.082Z,98654.00
2022-10-07T16:07:16.918Z,98655.69
2022-10-07T16:09:44.287Z,98648.66
2022-10-07T16:12:11.894Z,98639.44
2022-10-07T16:14:39.281Z,98650.97
2022-10-07T16:17:06.503Z,98641.25
2022-10-07T16:19:33.924Z,98646.91
2022-10-07T16:22:01.369Z,98641.09
2022-10-07T16:24:34.049Z,98640.91
2022-10-07T16:27:02.674Z,98634.47
2022-10-07T16:29:48.653Z,98641.63
2022-10-07T16:32:16.550Z,98630.59
2022-10-07T16:34:44.600Z,98635.13
2022-10-07T16:37:13.169Z,98638.78
2022-10-07T16:39:40.681Z,98635.31
2022-10-07T16:42:08.249Z,98635.44
2022-10-07T16:44:35.938Z,98634.09
2022-10-07T16:47:03.574Z,98631.59
2022-10-07T16:49:30.946Z,98625.78
2022-10-07T16:51:58.922Z,98636.03
2022-10-07T16:54:29.995Z,98626.75
2022-10-07T16:56:57.716Z,98630.38
2022-10-07T16:59:26.339Z,98624.50
2022-10-07T17:01:56.820Z,98627.97
2022-10-07T17:04:25.429Z,98621.50
2022-10-07T17:06:54.185Z,98619.44
2022-10-07T17:09:24.642Z,98623.88
2022-10-07T17:11:52.598Z,98622.63
2022-10-07T17:14:22.900Z,98623.41
2022-10-07T17:16:57.759Z,98623.16
2022-10-07T17:19:28.294Z,98619.84
2022-10-07T17:21:59.312Z,98617.44
2022-10-07T17:24:27.328Z,98619.06
2022-10-07T17:26:56.319Z,98620.34
2022-10-07T17:29:26.200Z,98616.34
2022-10-07T17:31:54.277Z,98610.97
2022-10-07T17:34:22.913Z,98610.47
2022-10-07T17:36:50.737Z,98602.28
2022-10-07T17:39:21.676Z,98607.16
2022-10-07T17:41:49.098Z,98607.91
2022-10-07T17:44:17.512Z,98613.19
2022-10-07T17:46:45.387Z,98614.69
2022-10-07T17:49:13.556Z,98612.41
2022-10-07T17:51:43.138Z,98607.56
2022-10-07T17:54:13.806Z,98616.50
2022-10-07T17:56:44.588Z,98611.19
2022-10-07T17:59:12.441Z,98611.41
2022-10-07T18:01:41.639Z,98608.19
2022-10-07T18:04:22.474Z,98603.50
2022-10-07T18:06:52.269Z,98609.63
2022-10-07T18:09:22.145Z,98597.13
2022-10-07T18:12:08.177Z,98597.44
2022-10-07T18:14:54.678Z,98596.91
2022-10-07T18:17:24.589Z,98594.00
2022-10-07T18:19:52.681Z,98589.47
2022-10-07T18:22:20.252Z,98593.66
2022-10-07T18:24:47.760Z,98591.72
2022-10-07T18:27:15.640Z,98583.81
2022-10-07T18:29:42.945Z,98581.72
2022-10-07T18:32:10.647Z,98581.06
2022-10-07T18:34:38.090Z,98586.75
2022-10-07T18:37:05.384Z,98581.34
2022-10-07T18:39:33.059Z,98579.25
2022-10-07T18:42:00.434Z,98583.69
2022-10-07T18:44:27.961Z,98567.16
2022-10-07T18:46:55.526Z,98571.31
2022-10-07T18:49:23.412Z,98577.03
2022-10-07T18:51:51.175Z,98572.31
2022-10-07T18:54:20.350Z,98572.44
2022-10-07T18:56:49.690Z,98575.91
2022-10-07T18:59:18.944Z,98570.63
2022-10-07T19:01:50.396Z,98572.59
2022-10-07T19:04:19.777Z,98568.97
2022-10-07T19:06:48.435Z,98572.31
2022-10-07T19:09:22.246Z,98566.19
2022-10-07T19:11:50.098Z,98570.16
2022-10-07T19:14:17.730Z,98567.81
2022-10-07T19:16:49.389Z,98560.03
2022-10-07T19:19:20.963Z,98564.19
2022-10-07T19:21:55.041Z,98568.09
2022-10-07T19:24:45.694Z,98562.06
2022-10-07T19:27:14.319Z,98557.09
2022-10-07T19:29:41.795Z,98553.31
2022-10-07T19:32:09.277Z,98557.91
2022-10-07T19:34:37.494Z,98555.28
2022-10-07T19:37:05.193Z,98556.09
2022-10-07T19:39:32.882Z,98553.44
2022-10-07T19:42:00.549Z,98552.91
2022-10-07T19:44:28.004Z,98551.63
2022-10-07T19:46:55.388Z,98554.13
2022-10-07T19:49:22.810Z,98552.31
2022-10-07T19:51:50.088Z,98550.25
2022-10-07T19:54:17.502Z,98544.97
2022-10-07T19:56:45.426Z,98542.31
2022-10-07T19:59:14.779Z,98545.22
2022-10-07T20:01:45.324Z,98547.16
2022-10-07T20:04:21.747Z,98545.50
2022-10-07T20:06:49.299Z,98554.94
2022-10-07T20:09:19.359Z,98549.81
2022-10-07T20:11:47.146Z,98541.34
2022-10-07T20:14:16.206Z,98546.31
2022-10-07T20:16:44.382Z,98550.16
2022-10-07T20:19:16.458Z,98546.00
2022-10-07T20:21:44.323Z,98535.88
2022-10-07T20:24:17.899Z,98537.78
2022-10-07T20:26:45.383Z,98538.34
2022-10-07T20:29:16.161Z,98540.97
2022-10-07T20:31:45.008Z,98529.59
2022-10-07T20:34:16.777Z,98534.28
2022-10-07T20:36:44.430Z,98522.63
2022-10-07T20:39:37.489Z,98524.53
2022-10-07T20:42:21.732Z,98519.25
2022-10-07T20:44:50.723Z,98524.09
2022-10-07T20:47:20.058Z,98522.78
2022-10-07T20:49:48.867Z,98525.38
2022-10-07T20:52:23.496Z,98522.44
2022-10-07T20:54:52.897Z,98526.63
2022-10-07T20:57:33.868Z,98525.19
2022-10-07T21:00:01.051Z,98528.66
2022-10-07T21:02:29.153Z,98531.31
2022-10-07T21:04:56.538Z,98526.16
2022-10-07T21:07:23.942Z,98531.84
2022-10-07T21:09:51.208Z,98526.31
2022-10-07T21:12:18.810Z,98529.78
2022-10-07T21:14:48.090Z,98533.91
2022-10-07T21:17:16.825Z,98528.19
2022-10-07T21:19:44.556Z,98532.22
2022-10-07T21:22:11.991Z,98532.50
2022-10-07T21:24:39.318Z,98531.06
2022-10-07T21:27:08.616Z,98522.72
2022-10-07T21:29:40.663Z,98527.41
2022-10-07T21:32:10.321Z,98531.28
2022-10-07T21:34:38.730Z,98528.06
2022-10-07T21:37:06.443Z,98530.81
2022-10-07T21:39:33.751Z,98526.91
2022-10-07T21:42:01.913Z,98525.69
2022-10-07T21:44:29.493Z,98521.50
2022-10-07T21:46:59.903Z,98525.22
2022-10-07T21:49:27.530Z,98522.03
2022-10-07T21:51:54.787Z,98514.69
2022-10-07T21:54:22.048Z,98517.44
2022-10-07T21:56:50.206Z,98514.69
2022-10-07T21:59:17.510Z,98517.72
2022-10-07T22:01:44.750Z,98506.22
2022-10-07T22:04:19.890Z,98507.56
2022-10-07T22:07:06.022Z,98506.72
2022-10-07T22:09:33.654Z,98507.13
2022-10-07T22:12:00.978Z,98504.34
2022-10-07T22:14:28.597Z,98500.00
2022-10-07T22:16:55.823Z,98488.75
2022-10-07T22:19:23.274Z,98491.13
2022-10-07T22:21:50.823Z,98483.41
2022-10-07T22:24:18.214Z,98493.13
2022-10-07T22:26:47.740Z,98489.19
2022-10-07T22:29:17.781Z,98492.78
2022-10-07T22:31:45.874Z,98489.06
2022-10-07T22:34:33.477Z,98485.00
2022-10-07T22:37:01.827Z,98482.38
2022-10-07T22:39:29.875Z,98479.84
2022-10-07T22:42:01.303Z,98477.22
2022-10-07T22:44:28.695Z,98476.38
2022-10-07T22:46:59.291Z,98474.59
2022-10-07T22:49:30.085Z,98478.09
2022-10-07T22:52:00.097Z,98473.16
2022-10-07T22:54:28.570Z,98471.25
2022-10-07T22:56:55.924Z,98472.81
2022-10-07T22:59:23.236Z,98469.81
2022-10-07T23:01:50.834Z,98463.34
2022-10-07T23:04:20.367Z,98460.50
2022-10-07T23:06:47.746Z,98460.81
2022-10-07T23:09:15.253Z,98461.78
2022-10-07T23:11:42.478Z,98457.72
2022-10-07T23:14:09.740Z,98456.78
2022-10-07T23:16:37.170Z,98460.34
2022-10-07T23:19:04.403Z,98462.16
2022-10-07T23:21:35.058Z,98454.53
2022-10-07T23:24:07.293Z,98457.41
2022-10-07T23:26:35.703Z,98453.22
2022-10-07T23:29:03.637Z,98454.31
2022-10-07T23:31:32.745Z,98451.47
2022-10-07T23:34:02.279Z,98447.78
2022-10-07T23:36:31.014Z,98438.44
2022-10-07T23:39:00.710Z,98446.69
2022-10-07T23:41:31.132Z,98442.53
2022-10-07T23:44:02.417Z,98443.44
2022-10-07T23:46:33.965Z,98438.91
2022-10-07T23:49:02.531Z,98439.88
2022-10-07T23:51:32.411Z,98433.13
2022-10-07T23:54:03.362Z,98434.94
2022-10-07T23:56:32.076Z,98439.88
2022-10-07T23:58:59.331Z,98426.06
